createdAt,value
2023-01-26T00:01:24.007Z,9.57
2023-01-26T00:03:51.738Z,9.38
2023-01-26T00:06:21.422Z,10.13
2023-01-26T00:08:54.501Z,10.45
2023-01-26T00:11:26.640Z,10.17
2023-01-26T00:13:54.580Z,10.68
2023-01-26T00:16:21.815Z,9.55
2023-01-26T00:18:48.570Z,10.55
2023-01-26T00:21:22.285Z,9.88
2023-01-26T00:23:50.697Z,10.70
2023-01-26T00:26:28.439Z,11.45
2023-01-26T00:28:55.419Z,9.60
2023-01-26T00:31:27.492Z,11.05
2023-01-26T00:33:56.444Z,9.85
2023-01-26T00:36:23.722Z,10.38
2023-01-26T00:38:50.582Z,12.88
2023-01-26T00:41:36.240Z,11.88
2023-01-26T00:44:03.027Z,10.60
2023-01-26T00:46:30.011Z,10.85
2023-01-26T00:48:57.008Z,11.57
2023-01-26T00:51:23.909Z,11.35
2023-01-26T00:53:50.683Z,10.93
2023-01-26T00:56:17.497Z,10.07
2023-01-26T00:58:45.469Z,10.52
2023-01-26T01:01:12.426Z,10.98
2023-01-26T01:03:39.286Z,10.60
2023-01-26T01:06:06.216Z,10.85
2023-01-26T01:08:33.002Z,11.02
2023-01-26T01:11:05.378Z,10.40
2023-01-26T01:13:32.173Z,10.60
2023-01-26T01:15:59.185Z,10.52
2023-01-26T01:18:25.932Z,9.68
2023-01-26T01:20:52.683Z,10.05
2023-01-26T01:23:19.537Z,10.13
2023-01-26T01:25:46.505Z,10.05
2023-01-26T01:28:13.238Z,10.32
2023-01-26T01:30:40.162Z,9.65
2023-01-26T01:33:07.111Z,10.13
2023-01-26T01:35:35.786Z,9.95
2023-01-26T01:38:02.649Z,10.55
2023-01-26T01:40:29.420Z,9.45
2023-01-26T01:42:56.672Z,10.90
2023-01-26T01:45:26.456Z,11.35
2023-01-26T01:47:57.967Z,10.70
2023-01-26T01:50:26.195Z,11.70
2023-01-26T01:52:55.758Z,10.23
2023-01-26T01:55:25.602Z,10.20
2023-01-26T01:57:58.887Z,10.40
2023-01-26T02:00:26.609Z,10.93
2023-01-26T02:03:11.071Z,11.02
2023-01-26T02:06:01.236Z,12.05
2023-01-26T02:08:34.289Z,10.82
2023-01-26T02:11:08.955Z,10.73
2023-01-26T02:13:37.483Z,11.75
2023-01-26T02:16:04.710Z,11.73
2023-01-26T02:18:31.645Z,11.70
2023-01-26T02:21:07.104Z,11.02
2023-01-26T02:23:56.681Z,11.43
2023-01-26T02:26:27.516Z,11.93
2023-01-26T02:28:55.014Z,12.27
2023-01-26T02:31:24.132Z,11.88
2023-01-26T02:33:51.250Z,11.02
2023-01-26T02:36:24.506Z,11.32
2023-01-26T02:39:25.029Z,11.52
2023-01-26T02:42:11.488Z,11.02
2023-01-26T02:44:41.446Z,11.65
2023-01-26T02:47:18.280Z,10.95
2023-01-26T02:49:48.561Z,12.55
2023-01-26T02:52:22.865Z,11.27
2023-01-26T02:55:08.415Z,11.05
2023-01-26T02:57:35.385Z,12.05
2023-01-26T03:00:05.393Z,11.80
2023-01-26T03:02:32.189Z,12.27
2023-01-26T03:04:58.976Z,11.60
2023-01-26T03:07:25.741Z,11.65
2023-01-26T03:09:53.261Z,12.27
2023-01-26T03:12:20.005Z,11.70
2023-01-26T03:14:46.755Z,12.65
2023-01-26T03:17:13.513Z,11.95
2023-01-26T03:19:59.024Z,13.25
2023-01-26T03:22:44.375Z,11.80
2023-01-26T03:25:29.757Z,10.93
2023-01-26T03:27:56.504Z,11.15
2023-01-26T03:30:23.316Z,12.18
2023-01-26T03:32:50.057Z,10.73
2023-01-26T03:35:22.474Z,11.02
2023-01-26T03:37:54.667Z,10.40
2023-01-26T03:40:40.162Z,10.52
2023-01-26T03:43:28.190Z,11.20
2023-01-26T03:46:13.647Z,10.77
2023-01-26T03:48:58.981Z,11.35
2023-01-26T03:51:44.372Z,12.35
2023-01-26T03:54:29.780Z,12.30
2023-01-26T03:56:56.537Z,12.65
2023-01-26T03:59:37.839Z,11.45
2023-01-26T04:02:29.288Z,10.70
2023-01-26T04:05:15.336Z,11.43
2023-01-26T04:08:00.527Z,11.18
2023-01-26T04:10:27.818Z,12.00
2023-01-26T04:13:13.442Z,12.43
2023-01-26T04:15:58.935Z,12.20
2023-01-26T04:18:44.680Z,11.90
2023-01-26T04:21:26.601Z,10.88
2023-01-26T04:23:56.488Z,10.73
2023-01-26T04:26:34.771Z,11.02
2023-01-26T04:29:04.296Z,11.40
2023-01-26T04:31:32.112Z,11.38
2023-01-26T04:34:00.945Z,11.50
2023-01-26T04:36:28.056Z,11.18
2023-01-26T04:38:55.348Z,11.48
2023-01-26T04:41:22.198Z,12.48
2023-01-26T04:43:48.951Z,10.77
2023-01-26T04:46:15.884Z,10.02
2023-01-26T04:48:43.216Z,10.73
2023-01-26T04:51:17.123Z,10.40
2023-01-26T04:56:28.045Z,9.90
2023-01-26T04:58:58.279Z,10.05
2023-01-26T05:01:25.126Z,11.38
2023-01-26T05:03:52.650Z,10.15
2023-01-26T05:06:19.497Z,10.73
2023-01-26T05:08:46.412Z,11.00
2023-01-26T05:11:13.272Z,11.07
2023-01-26T05:13:41.286Z,10.68
2023-01-26T05:16:08.892Z,10.63
2023-01-26T05:18:35.650Z,10.77
2023-01-26T05:21:02.745Z,9.43
2023-01-26T05:23:29.482Z,10.60
2023-01-26T05:25:56.241Z,9.65
2023-01-26T05:28:23.032Z,8.95
2023-01-26T05:30:49.822Z,8.82
2023-01-26T05:33:16.703Z,8.23
2023-01-26T05:35:43.512Z,8.10
2023-01-26T05:38:10.268Z,7.60
2023-01-26T05:40:37.037Z,8.20
2023-01-26T05:43:03.847Z,9.18
2023-01-26T05:45:30.654Z,8.77
2023-01-26T05:47:57.497Z,9.23
2023-01-26T05:50:24.447Z,8.85
2023-01-26T05:52:51.234Z,9.82
2023-01-26T05:55:18.213Z,9.82
2023-01-26T05:57:44.983Z,10.93
2023-01-26T06:00:14.049Z,10.13
2023-01-26T06:02:41.746Z,10.90
2023-01-26T06:05:09.421Z,11.25
2023-01-26T06:07:36.386Z,11.85
2023-01-26T06:10:04.192Z,12.38
2023-01-26T06:12:35.359Z,11.70
2023-01-26T06:15:02.811Z,13.10
2023-01-26T06:17:29.543Z,11.45
2023-01-26T06:19:56.449Z,12.82
2023-01-26T06:22:23.238Z,11.43
2023-01-26T06:24:49.972Z,11.40
2023-01-26T06:27:18.619Z,12.73
2023-01-26T06:29:45.981Z,12.10
2023-01-26T06:32:14.512Z,10.85
2023-01-26T06:34:41.721Z,11.40
2023-01-26T06:37:09.171Z,11.80
2023-01-26T06:39:36.445Z,11.07
2023-01-26T06:42:03.374Z,11.05
2023-01-26T06:44:30.290Z,10.20
2023-01-26T06:46:57.085Z,9.43
2023-01-26T06:49:23.883Z,9.32
2023-01-26T06:52:04.847Z,9.57
2023-01-26T06:54:31.689Z,9.07
2023-01-26T06:56:58.677Z,9.48
2023-01-26T06:59:25.791Z,9.73
2023-01-26T07:01:52.518Z,9.40
2023-01-26T07:04:19.366Z,8.82
2023-01-26T07:06:46.111Z,9.25
2023-01-26T07:09:12.938Z,10.43
2023-01-26T07:11:39.675Z,9.95
2023-01-26T07:14:06.544Z,9.77
2023-01-26T07:16:33.983Z,10.55
2023-01-26T07:19:01.451Z,9.43
2023-01-26T07:21:28.498Z,9.23
2023-01-26T07:23:56.569Z,8.90
2023-01-26T07:26:23.785Z,9.25
2023-01-26T07:28:50.545Z,9.13
2023-01-26T07:31:17.403Z,8.93
2023-01-26T07:33:44.399Z,12.80
2023-01-26T07:36:11.280Z,11.40
2023-01-26T07:38:38.759Z,9.73
2023-01-26T07:41:09.323Z,9.75
2023-01-26T07:43:37.889Z,10.43
2023-01-26T07:46:07.366Z,8.57
2023-01-26T07:48:34.329Z,9.15
2023-01-26T07:51:03.749Z,9.45
2023-01-26T07:53:34.100Z,8.95
2023-01-26T07:56:16.377Z,9.43
2023-01-26T07:58:43.151Z,8.68
2023-01-26T08:01:13.844Z,8.40
2023-01-26T08:03:41.720Z,8.60
2023-01-26T08:06:11.798Z,9.30
2023-01-26T08:08:41.053Z,9.73
2023-01-26T08:11:09.668Z,7.93
2023-01-26T08:13:36.709Z,9.70
2023-01-26T08:16:13.157Z,8.27
2023-01-26T08:18:45.974Z,8.77
2023-01-26T08:21:15.783Z,8.27
2023-01-26T08:23:42.822Z,8.38
2023-01-26T08:26:13.344Z,8.63
2023-01-26T08:28:41.506Z,8.20
2023-01-26T08:31:15.221Z,8.80
2023-01-26T08:33:43.660Z,8.63
2023-01-26T08:36:15.465Z,7.78
2023-01-26T08:38:43.951Z,8.00
2023-01-26T08:41:11.863Z,8.88
2023-01-26T08:43:38.689Z,8.30
2023-01-26T08:46:06.309Z,8.00
2023-01-26T08:48:33.515Z,7.75
2023-01-26T08:51:02.656Z,9.00
2023-01-26T08:53:36.306Z,8.32
2023-01-26T08:56:10.184Z,8.25
2023-01-26T08:58:37.407Z,8.30
2023-01-26T09:01:11.409Z,8.85
2023-01-26T09:06:06.905Z,7.75
2023-01-26T09:08:34.349Z,8.27
2023-01-26T09:11:01.850Z,7.93
2023-01-26T09:13:28.905Z,8.52
2023-01-26T09:15:55.689Z,8.15
2023-01-26T09:18:22.478Z,7.95
2023-01-26T09:20:51.079Z,8.20
2023-01-26T09:23:18.195Z,9.65
2023-01-26T09:25:45.299Z,8.27
2023-01-26T09:28:12.034Z,9.48
2023-01-26T09:30:38.865Z,8.45
2023-01-26T09:33:06.870Z,7.80
2023-01-26T09:35:33.674Z,8.40
2023-01-26T09:38:00.376Z,7.78
2023-01-26T09:40:54.851Z,7.80
2023-01-26T09:43:47.752Z,7.75
2023-01-26T09:46:27.750Z,7.40
2023-01-26T09:49:21.605Z,7.60
2023-01-26T09:52:00.777Z,6.88
2023-01-26T09:54:51.421Z,8.48
2023-01-26T09:58:01.112Z,7.50
2023-01-26T10:00:57.156Z,7.65
2023-01-26T10:03:36.591Z,7.28
2023-01-26T10:06:28.333Z,8.27
2023-01-26T10:08:59.662Z,8.15
2023-01-26T10:11:37.245Z,7.43
2023-01-26T10:15:12.162Z,8.88
2023-01-26T10:17:42.600Z,7.38
2023-01-26T10:20:27.484Z,7.28
2023-01-26T10:23:18.328Z,7.57
2023-01-26T10:25:50.913Z,7.75
2023-01-26T10:28:30.829Z,7.80
2023-01-26T10:30:58.033Z,7.35
2023-01-26T10:33:34.093Z,7.70
2023-01-26T10:36:07.782Z,7.65
2023-01-26T10:38:34.482Z,7.45
2023-01-26T10:41:14.461Z,7.78
2023-01-26T10:43:49.743Z,7.90
2023-01-26T10:46:38.442Z,7.68
2023-01-26T10:49:08.238Z,7.70
2023-01-26T10:51:38.447Z,8.10
2023-01-26T10:54:28.071Z,8.20
2023-01-26T10:57:03.072Z,7.18
2023-01-26T10:59:43.550Z,8.13
2023-01-26T11:02:28.017Z,8.30
2023-01-26T11:05:06.907Z,7.63
2023-01-26T11:07:47.141Z,8.23
2023-01-26T11:10:23.403Z,6.97
2023-01-26T11:13:05.580Z,7.28
2023-01-26T11:15:40.348Z,7.05
2023-01-26T11:18:22.699Z,7.00
2023-01-26T11:20:58.455Z,7.38
2023-01-26T11:23:31.861Z,7.78
2023-01-26T11:26:30.789Z,7.00
2023-01-26T11:29:31.642Z,6.63
2023-01-26T11:35:23.677Z,7.18
2023-01-26T11:38:30.632Z,8.63
2023-01-26T11:41:39.860Z,8.93
2023-01-26T11:44:30.924Z,9.10
2023-01-26T11:47:35.798Z,8.80
2023-01-26T11:52:58.681Z,7.75
2023-01-26T11:55:58.574Z,7.10
2023-01-26T11:58:46.470Z,8.27
2023-01-26T12:01:28.967Z,8.82
2023-01-26T12:03:57.026Z,8.80
2023-01-26T12:06:42.227Z,8.30
2023-01-26T12:09:39.686Z,8.45
2023-01-26T12:12:21.771Z,7.53
2023-01-26T12:14:55.169Z,8.23
2023-01-26T12:17:33.741Z,8.30
2023-01-26T12:20:27.869Z,8.18
2023-01-26T12:23:11.927Z,8.68
2023-01-26T12:25:46.656Z,6.75
2023-01-26T12:28:34.951Z,6.75
2023-01-26T12:31:18.130Z,7.45
2023-01-26T12:33:48.072Z,7.60
2023-01-26T12:36:42.709Z,8.27
2023-01-26T12:42:21.779Z,7.88
2023-01-26T12:45:01.825Z,8.32
2023-01-26T12:47:44.445Z,8.73
2023-01-26T12:50:37.624Z,9.30
2023-01-26T12:53:19.702Z,8.85
2023-01-26T12:56:13.238Z,8.32
2023-01-26T12:58:45.641Z,7.93
2023-01-26T13:01:17.145Z,8.27
2023-01-26T13:03:52.826Z,8.50
2023-01-26T13:06:24.652Z,8.70
2023-01-26T13:08:57.564Z,7.80
2023-01-26T13:11:55.656Z,9.30
2023-01-26T13:14:41.724Z,7.90
2023-01-26T13:17:47.618Z,6.80
2023-01-26T13:20:28.958Z,6.72
2023-01-26T13:22:56.487Z,6.53
2023-01-26T13:25:32.136Z,6.68
2023-01-26T13:28:12.275Z,6.47
2023-01-26T13:31:02.475Z,7.65
2023-01-26T13:33:29.475Z,6.63
2023-01-26T13:35:58.379Z,6.18
2023-01-26T13:38:47.872Z,6.65
2023-01-26T13:41:20.620Z,6.45
2023-01-26T13:43:55.247Z,6.40
2023-01-26T13:46:34.518Z,6.20
2023-01-26T13:49:02.236Z,6.50
2023-01-26T13:51:35.541Z,6.45
2023-01-26T13:54:12.952Z,5.70
2023-01-26T13:57:00.269Z,6.63
2023-01-26T13:59:27.015Z,6.43
2023-01-26T14:01:57.138Z,6.93
2023-01-26T14:04:32.378Z,6.47
2023-01-26T14:07:06.151Z,6.72
2023-01-26T14:09:45.050Z,6.38
2023-01-26T14:12:33.626Z,6.60
2023-01-26T14:15:06.028Z,6.97
2023-01-26T14:17:36.935Z,6.15
2023-01-26T14:20:34.155Z,6.80
2023-01-26T14:23:15.029Z,6.63
2023-01-26T14:25:48.481Z,6.70
2023-01-26T14:28:20.692Z,6.68
2023-01-26T14:31:15.815Z,7.22
2023-01-26T14:33:43.018Z,7.80
2023-01-26T14:36:21.180Z,8.32
2023-01-26T14:38:51.596Z,8.40
2023-01-26T14:41:30.341Z,9.02
2023-01-26T14:44:01.812Z,8.32
2023-01-26T14:46:54.044Z,7.88
2023-01-26T14:49:42.865Z,7.95
2023-01-26T14:52:25.577Z,8.50
2023-01-26T14:54:56.181Z,8.07
2023-01-26T14:57:26.431Z,8.13
2023-01-26T14:59:57.927Z,8.13
2023-01-26T15:02:36.920Z,9.10
2023-01-26T15:05:14.352Z,8.18
2023-01-26T15:07:41.156Z,8.60
2023-01-26T15:10:42.994Z,9.40
2023-01-26T15:13:15.883Z,8.77
2023-01-26T15:16:01.111Z,9.00
2023-01-26T15:18:33.381Z,9.35
2023-01-26T15:21:11.300Z,8.73
2023-01-26T15:23:44.848Z,8.25
2023-01-26T15:26:33.641Z,8.70
2023-01-26T15:29:04.986Z,9.82
2023-01-26T15:31:41.822Z,9.80
2023-01-26T15:34:38.522Z,9.63
2023-01-26T15:37:33.546Z,10.02
2023-01-26T15:40:00.425Z,9.15
2023-01-26T15:42:30.180Z,11.20
2023-01-26T15:44:57.520Z,11.05
2023-01-26T15:47:24.295Z,10.65
2023-01-26T15:49:51.151Z,10.40
2023-01-26T15:52:25.737Z,11.10
2023-01-26T15:54:53.931Z,11.35
2023-01-26T15:57:20.756Z,11.35
2023-01-26T15:59:47.586Z,12.02
2023-01-26T16:02:20.034Z,12.27
2023-01-26T16:04:47.694Z,12.30
2023-01-26T16:07:17.867Z,12.00
2023-01-26T16:09:44.955Z,12.70
2023-01-26T16:12:32.946Z,11.65
2023-01-26T16:15:00.516Z,11.25
2023-01-26T16:17:27.537Z,10.93
2023-01-26T16:19:54.350Z,12.23
2023-01-26T16:22:21.131Z,11.35
2023-01-26T16:24:48.085Z,11.65
2023-01-26T16:27:14.808Z,10.63
2023-01-26T16:29:41.643Z,11.50
2023-01-26T16:32:29.671Z,11.65
2023-01-26T16:34:56.520Z,12.18
2023-01-26T16:37:23.253Z,11.77
2023-01-26T16:39:50.050Z,11.43
2023-01-26T16:42:21.449Z,12.00
2023-01-26T16:44:48.482Z,11.23
2023-01-26T16:47:15.307Z,9.70
2023-01-26T16:49:42.279Z,9.52
2023-01-26T16:52:09.987Z,10.07
2023-01-26T16:54:37.189Z,10.35
2023-01-26T16:57:04.063Z,10.13
2023-01-26T16:59:30.846Z,9.50
2023-01-26T17:01:57.899Z,10.50
2023-01-26T17:04:24.680Z,11.18
2023-01-26T17:06:51.982Z,11.30
2023-01-26T17:09:18.785Z,10.85
2023-01-26T17:11:45.507Z,10.48
2023-01-26T17:14:12.981Z,10.13
2023-01-26T17:16:39.895Z,10.55
2023-01-26T17:19:09.074Z,10.18
2023-01-26T17:21:36.178Z,9.93
2023-01-26T17:24:03.625Z,10.43
2023-01-26T17:26:30.433Z,10.43
2023-01-26T17:28:57.201Z,10.25
2023-01-26T17:31:25.101Z,10.65
2023-01-26T17:33:51.940Z,9.88
2023-01-26T17:36:19.845Z,10.02
2023-01-26T17:38:48.346Z,9.98
2023-01-26T17:41:16.527Z,10.18
2023-01-26T17:43:43.330Z,10.13
2023-01-26T17:46:16.588Z,11.05
2023-01-26T17:48:45.462Z,10.35
2023-01-26T17:51:20.256Z,10.82
2023-01-26T17:53:49.709Z,10.75
2023-01-26T17:56:19.748Z,8.80
2023-01-26T17:58:53.368Z,9.07
2023-01-26T18:01:22.669Z,9.77
2023-01-26T18:03:49.984Z,9.60
2023-01-26T18:06:17.147Z,11.02
2023-01-26T18:08:44.035Z,11.82
2023-01-26T18:11:14.436Z,12.02
2023-01-26T18:13:41.918Z,12.35
2023-01-26T18:16:12.341Z,12.05
2023-01-26T18:18:39.108Z,12.20
2023-01-26T18:21:17.128Z,11.75
2023-01-26T18:23:52.483Z,11.07
2023-01-26T18:26:22.896Z,11.45
2023-01-26T18:28:50.528Z,11.10
2023-01-26T18:31:27.578Z,13.55
2023-01-26T18:33:57.467Z,12.48
2023-01-26T18:36:24.573Z,12.43
2023-01-26T18:38:54.848Z,11.82
2023-01-26T18:41:24.065Z,11.77
2023-01-26T18:43:53.462Z,12.65
2023-01-26T18:46:22.286Z,13.27
2023-01-26T18:48:52.682Z,12.30
2023-01-26T18:51:20.223Z,11.73
2023-01-26T18:53:46.951Z,13.15
2023-01-26T18:56:16.654Z,11.98
2023-01-26T18:58:43.558Z,11.80
2023-01-26T19:01:16.317Z,11.50
2023-01-26T19:03:47.352Z,12.10
2023-01-26T19:06:20.686Z,11.68
2023-01-26T19:09:00.743Z,12.07
2023-01-26T19:11:31.185Z,11.25
2023-01-26T19:13:58.971Z,10.57
2023-01-26T19:16:26.828Z,12.52
2023-01-26T19:18:55.364Z,11.27
2023-01-26T19:21:27.510Z,12.38
2023-01-26T19:23:57.595Z,11.50
2023-01-26T19:26:29.706Z,11.13
2023-01-26T19:28:56.779Z,11.55
2023-01-26T19:31:26.337Z,10.85
2023-01-26T19:34:02.549Z,11.43
2023-01-26T19:36:32.305Z,10.85
2023-01-26T19:38:59.349Z,10.40
2023-01-26T19:41:27.099Z,10.98
2023-01-26T19:43:53.942Z,10.90
2023-01-26T19:46:21.385Z,10.63
2023-01-26T19:48:49.016Z,10.82
2023-01-26T19:51:21.543Z,10.65
2023-01-26T19:53:52.015Z,10.88
2023-01-26T19:56:24.365Z,10.93
2023-01-26T19:58:54.460Z,10.25
2023-01-26T20:01:22.087Z,11.23
2023-01-26T20:03:56.686Z,9.95
2023-01-26T20:06:28.384Z,10.40
2023-01-26T20:08:55.614Z,11.13
2023-01-26T20:11:24.873Z,10.82
2023-01-26T20:13:57.017Z,11.50
2023-01-26T20:16:27.885Z,10.60
2023-01-26T20:18:56.453Z,10.73
2023-01-26T20:21:23.630Z,10.85
2023-01-26T20:23:54.960Z,11.55
2023-01-26T20:26:23.937Z,11.68
2023-01-26T20:28:51.736Z,10.68
2023-01-26T20:31:22.852Z,11.70
2023-01-26T20:33:51.480Z,10.95
2023-01-26T20:36:23.498Z,10.93
2023-01-26T20:38:50.396Z,11.20
2023-01-26T20:41:25.234Z,11.20
2023-01-26T20:44:00.394Z,10.77
2023-01-26T20:46:33.148Z,10.35
2023-01-26T20:49:01.140Z,11.45
2023-01-26T20:51:34.011Z,9.48
2023-01-26T20:54:02.356Z,10.20
2023-01-26T20:56:29.233Z,9.32
2023-01-26T20:58:56.323Z,9.55
2023-01-26T21:01:24.977Z,10.18
2023-01-26T21:03:53.799Z,11.57
2023-01-26T21:06:22.666Z,9.55
2023-01-26T21:08:53.384Z,10.13
2023-01-26T21:11:22.053Z,9.25
2023-01-26T21:13:49.289Z,10.50
2023-01-26T21:16:17.438Z,9.65
2023-01-26T21:18:46.006Z,9.88
2023-01-26T21:21:18.936Z,10.48
2023-01-26T21:23:46.241Z,9.68
2023-01-26T21:26:25.574Z,10.43
2023-01-26T21:28:59.595Z,9.75
2023-01-26T21:31:30.249Z,10.13
2023-01-26T21:33:58.108Z,9.95
2023-01-26T21:36:31.137Z,9.38
2023-01-26T21:39:00.038Z,9.37
2023-01-26T21:41:50.972Z,10.10
2023-01-26T21:44:27.888Z,8.90
2023-01-26T21:47:04.300Z,9.82
2023-01-26T21:49:31.377Z,9.63
2023-01-26T21:52:17.200Z,8.57
2023-01-26T21:54:44.027Z,9.75
2023-01-26T21:57:30.044Z,9.02
2023-01-26T21:59:56.975Z,8.02
2023-01-26T22:02:23.995Z,9.63
2023-01-26T22:04:51.613Z,9.05
2023-01-26T22:07:18.744Z,8.65
2023-01-26T22:09:45.570Z,8.93
2023-01-26T22:12:12.361Z,8.65
2023-01-26T22:14:39.679Z,9.73
2023-01-26T22:17:06.477Z,9.50
2023-01-26T22:19:33.252Z,8.90
2023-01-26T22:21:59.993Z,8.77
2023-01-26T22:24:26.780Z,9.10
2023-01-26T22:26:53.534Z,7.57
2023-01-26T22:29:20.576Z,8.55
2023-01-26T22:31:47.418Z,9.05
2023-01-26T22:34:14.246Z,7.50
2023-01-26T22:36:41.359Z,8.13
2023-01-26T22:39:08.788Z,8.93
2023-01-26T22:41:37.600Z,8.65
2023-01-26T22:44:04.784Z,8.30
2023-01-26T22:46:33.327Z,8.85
2023-01-26T22:49:00.521Z,9.25
2023-01-26T22:51:31.274Z,9.20
2023-01-26T22:53:59.848Z,9.18
2023-01-26T22:56:27.248Z,9.02
2023-01-26T22:59:00.470Z,8.25
2023-01-26T23:01:32.078Z,8.73
2023-01-26T23:04:00.919Z,8.35
2023-01-26T23:06:28.739Z,8.75
2023-01-26T23:08:55.805Z,9.20
2023-01-26T23:11:28.836Z,8.77
2023-01-26T23:13:57.779Z,8.73
2023-01-26T23:16:25.814Z,9.32
2023-01-26T23:18:55.808Z,8.95
2023-01-26T23:21:24.123Z,8.52
2023-01-26T23:23:51.387Z,7.97
2023-01-26T23:26:18.554Z,8.82
2023-01-26T23:28:45.605Z,8.18
2023-01-26T23:31:14.833Z,9.30
2023-01-26T23:33:42.442Z,8.57
2023-01-26T23:36:12.345Z,9.20
2023-01-26T23:38:39.372Z,9.48
2023-01-26T23:41:08.666Z,9.75
2023-01-26T23:43:35.590Z,8.32
2023-01-26T23:46:02.829Z,7.95
2023-01-26T23:48:29.689Z,8.32
2023-01-26T23:51:03.904Z,7.68
2023-01-26T23:53:31.999Z,8.98
2023-01-26T23:56:07.968Z,7.93
2023-01-26T23:58:36.377Z,8.32
